Time;durP1;ratioP1;P1;durP2;ratioP2;P2;SDS_P1;SDS_P2;PMS_P1;PMS_P2;Temp;Humidity;BMP_temperature;BMP_pressure;BME280_temperature;BME280_humidity;BME280_pressure;Samples;Min_cycle;Max_cycle;Signal;HPM_P1;HPM_P2
2022/04/06 00:02:12;;;;;;;8.60;4.53;;;;;;;8.40;89.99;100410.53;5013910;28;20080;-91
2022/04/06 00:04:37;;;;;;;12.17;5.23;;;;;;;8.38;90.00;100413.16;5014123;28;20594;-90
2022/04/06 00:07:03;;;;;;;10.70;5.00;;;;;;;8.39;90.08;100417.47;5013778;28;20490;-89
2022/04/06 00:09:28;;;;;;;14.00;5.27;;;;;;;8.38;89.75;100401.97;5013553;28;20030;-91
2022/04/06 00:11:53;;;;;;;13.45;5.20;;;;;;;8.37;89.84;100401.09;5013990;28;20029;-90
2022/04/06 00:14:19;;;;;;;13.93;5.03;;;;;;;8.35;89.57;100401.13;5013910;28;20454;-90
2022/04/06 00:16:44;;;;;;;12.27;5.03;;;;;;;8.35;89.75;100395.09;5013517;28;20026;-90
2022/04/06 00:19:10;;;;;;;11.27;4.73;;;;;;;8.35;89.76;100402.84;5013234;28;20043;-90
2022/04/06 00:21:35;;;;;;;17.67;6.27;;;;;;;8.33;90.11;100399.44;5013633;28;20041;-90
2022/04/06 00:24:01;;;;;;;11.93;5.33;;;;;;;8.31;89.77;100396.03;5013724;28;20096;-89
2022/04/06 00:26:27;;;;;;;10.02;4.68;;;;;;;8.33;89.84;100400.28;5013776;28;20033;-90
2022/04/06 00:28:52;;;;;;;11.17;5.07;;;;;;;8.33;90.09;100405.47;5013438;28;20049;-89
2022/04/06 00:31:17;;;;;;;14.17;4.80;;;;;;;8.39;89.22;100399.34;5013897;28;20100;-91
2022/04/06 00:33:42;;;;;;;11.43;4.78;;;;;;;8.31;89.55;100394.28;5013189;28;20026;-90
2022/04/06 00:36:08;;;;;;;7.67;4.33;;;;;;;8.32;89.77;100392.56;5013061;28;20062;-91
2022/04/06 00:38:33;;;;;;;12.23;4.60;;;;;;;8.29;89.79;100390.00;5013229;28;20402;-90
2022/04/06 00:40:59;;;;;;;10.10;4.60;;;;;;;8.28;89.54;100389.13;5013743;28;20032;-90
2022/04/06 00:43:24;;;;;;;13.55;5.00;;;;;;;8.27;89.86;100384.88;5015852;28;20048;-91
2022/04/06 00:45:50;;;;;;;9.77;4.30;;;;;;;8.28;89.41;100383.97;5016894;28;20022;-91
2022/04/06 00:48:15;;;;;;;15.40;4.70;;;;;;;8.28;89.40;100386.56;5017267;28;20038;-91
2022/04/06 00:50:42;;;;;;;10.63;4.75;;;;;;;8.26;89.53;100384.88;5016600;28;20041;-91
2022/04/06 00:53:08;;;;;;;;;;;;;;;8.25;89.71;100384.03;5017796;28;20381;-90
2022/04/06 00:55:37;;;;;;;14.27;4.70;;;;;;;8.25;89.46;100389.19;5017041;28;19913;-89
2022/04/06 00:58:04;;;;;;;13.18;5.18;;;;;;;8.23;89.56;100378.03;5016779;28;20376;-92
2022/04/06 01:00:30;;;;;;;13.65;4.80;;;;;;;8.23;89.66;100375.44;5016554;28;20101;-91
2022/04/06 01:02:55;;;;;;;13.90;5.00;;;;;;;8.24;89.30;100378.88;5016904;28;20060;-90
2022/04/06 01:05:21;;;;;;;11.52;4.35;;;;;;;8.22;89.61;100376.31;5016817;28;20661;-89
2022/04/06 01:07:51;;;;;;;11.20;4.40;;;;;;;8.21;89.64;100366.00;5016737;28;20065;-90
2022/04/06 01:10:17;;;;;;;7.35;3.90;;;;;;;8.21;89.51;100364.25;5016737;28;20095;-90
2022/04/06 01:12:46;;;;;;;9.57;3.83;;;;;;;8.19;89.56;100364.28;5016591;28;20046;-90
2022/04/06 01:15:12;;;;;;;8.73;3.95;;;;;;;8.19;89.44;100361.69;5016481;28;20097;-91
2022/04/06 01:17:37;;;;;;;9.60;3.88;;;;;;;8.20;89.12;100362.53;5016765;28;20585;-91
2022/04/06 01:20:05;;;;;;;7.72;3.53;;;;;;;8.21;89.35;100358.25;5016578;28;20108;-89
2022/04/06 01:22:31;;;;;;;12.43;4.07;;;;;;;8.19;89.12;100359.13;5015933;28;20062;-91
2022/04/06 01:24:56;;;;;;;11.83;4.10;;;;;;;8.18;89.15;100360.00;5016205;28;20441;-90
2022/04/06 01:27:21;;;;;;;10.73;4.80;;;;;;;8.18;89.20;100362.56;5016104;28;20057;-92
2022/04/06 01:29:47;;;;;;;9.23;3.63;;;;;;;8.18;89.08;100356.53;5016145;28;20038;-91
2022/04/06 01:32:17;;;;;;;9.82;3.70;;;;;;;8.18;89.09;100357.41;5016308;28;20470;-90
2022/04/06 01:34:43;;;;;;;8.88;3.80;;;;;;;8.15;89.37;100352.28;5016225;28;20040;-90
2022/04/06 01:37:10;;;;;;;8.23;3.90;;;;;;;8.19;88.99;100353.06;5016329;28;20034;-90
2022/04/06 01:39:36;;;;;;;;;;;;;;;8.25;88.78;100354.72;5016654;28;20097;-89
2022/04/06 01:42:02;;;;;;;9.40;3.90;;;;;;;8.16;88.92;100353.13;5015963;28;20441;-91
2022/04/06 01:44:29;;;;;;;11.77;4.10;;;;;;;8.13;89.12;100351.44;5015982;28;20024;-89
2022/04/06 01:46:54;;;;;;;9.70;3.72;;;;;;;8.13;89.11;100353.16;5016178;28;20097;-89
2022/04/06 01:52:13;;;;;;;9.88;3.95;;;;;;;8.09;88.89;100342.03;5015568;28;20045;-89
2022/04/06 01:54:40;;;;;;;9.43;3.50;;;;;;;8.09;88.95;100348.91;5013906;28;20038;-90
2022/04/06 01:57:05;;;;;;;5.93;3.05;;;;;;;8.09;88.89;100352.34;5016059;28;20025;-88
2022/04/06 01:59:30;;;;;;;7.70;3.20;;;;;;;8.08;88.91;100340.31;5015454;28;20088;-92
2022/04/06 02:01:56;;;;;;;8.90;3.63;;;;;;;8.07;88.98;100348.06;5016141;28;20022;-91
2022/04/06 02:04:22;;;;;;;13.03;3.67;;;;;;;8.06;88.56;100342.06;5014900;28;20061;-92
2022/04/06 02:06:47;;;;;;;8.97;3.60;;;;;;;8.07;88.57;100343.75;5015724;28;20018;-90
2022/04/06 02:09:13;;;;;;;6.63;3.33;;;;;;;8.08;88.68;100345.47;5015730;28;20025;-91
2022/04/06 02:11:39;;;;;;;7.33;2.90;;;;;;;8.09;88.58;100339.44;5015424;28;20018;-90
2022/04/06 02:14:05;;;;;;;12.02;3.65;;;;;;;8.09;88.09;100333.41;5015381;28;20470;-92
2022/04/06 02:16:32;;;;;;;9.63;3.77;;;;;;;8.05;88.30;100340.34;5015378;28;20034;-88
2022/04/06 02:18:58;;;;;;;9.85;3.50;;;;;;;8.05;87.68;100340.34;5015492;28;20033;-87
2022/04/06 02:21:23;;;;;;;9.13;3.50;;;;;;;8.04;87.54;100336.91;5021139;28;20022;-90
2022/04/06 02:23:48;;;;;;;7.87;3.23;;;;;;;8.04;88.00;100330.88;5034353;28;20022;-89
2022/04/06 02:26:14;;;;;;;8.63;3.20;;;;;;;8.02;87.90;100328.31;5031781;28;20117;-90
2022/04/06 02:28:39;;;;;;;6.67;2.87;;;;;;;8.01;87.86;100330.91;5029017;28;20042;-91
2022/04/06 02:31:04;;;;;;;6.30;2.63;;;;;;;8.01;87.81;100331.78;5015572;28;20108;-91
2022/04/06 02:33:30;;;;;;;5.30;2.78;;;;;;;8.00;88.01;100319.72;5014883;28;20029;-91
2022/04/06 02:35:55;;;;;;;8.30;3.17;;;;;;;8.00;87.81;100324.03;5015448;28;20078;-91
2022/04/06 02:38:20;;;;;;;7.10;3.28;;;;;;;7.99;87.63;100327.50;5015161;28;20056;-90
2022/04/06 02:40:46;;;;;;;8.48;3.10;;;;;;;7.98;87.46;100320.63;5014558;28;20030;-92
2022/04/06 02:43:11;;;;;;;8.00;2.80;;;;;;;7.97;87.47;100317.19;5015151;28;20014;-91
2022/04/06 02:45:37;;;;;;;12.15;3.28;;;;;;;7.99;87.17;100318.00;5014972;28;20025;-91
2022/04/06 02:48:02;;;;;;;7.07;3.03;;;;;;;7.96;86.87;100318.03;5014866;28;20030;-90
2022/04/06 02:50:27;;;;;;;6.60;2.92;;;;;;;7.96;87.05;100312.03;5014296;28;20122;-91
2022/04/06 02:52:53;;;;;;;8.93;3.20;;;;;;;7.93;87.02;100312.06;5014983;28;20052;-89
2022/04/06 02:55:18;;;;;;;8.73;3.00;;;;;;;7.91;86.92;100306.06;5014891;28;20425;-90
2022/04/06 02:57:43;;;;;;;7.13;2.70;;;;;;;7.89;86.71;100303.50;5014548;28;20033;-92
2022/04/06 03:00:09;;;;;;;6.27;2.80;;;;;;;7.88;86.97;100307.81;5014378;28;20034;-90
2022/04/06 03:02:35;;;;;;;8.47;2.73;;;;;;;7.89;86.85;100308.69;5014404;28;20103;-92
2022/04/06 03:05:00;;;;;;;7.83;2.70;;;;;;;7.88;86.66;100309.56;5014754;28;20386;-90
2022/04/06 03:07:25;;;;;;;7.30;2.75;;;;;;;7.93;86.99;100301.75;5014587;28;20030;-91
2022/04/06 03:09:51;;;;;;;7.20;2.90;;;;;;;7.88;86.63;100300.06;5014504;28;20034;-90
2022/04/06 03:12:16;;;;;;;8.73;3.20;;;;;;;7.84;86.09;100293.25;5014639;28;20041;-91
2022/04/06 03:14:41;;;;;;;5.55;2.67;;;;;;;7.82;86.01;100296.72;5014441;28;20041;-89
2022/04/06 03:17:06;;;;;;;6.40;3.10;;;;;;;7.78;86.14;100288.13;5014480;28;20018;-91
2022/04/06 03:19:34;;;;;;;9.33;3.13;;;;;;;7.76;85.84;100284.75;5014155;28;20033;-92
2022/04/06 03:22:00;;;;;;;6.88;2.78;;;;;;;7.77;86.36;100277.81;5013999;28;20045;-91
2022/04/06 03:24:26;;;;;;;5.17;2.50;;;;;;;7.76;86.37;100279.56;5013923;28;20468;-92
2022/04/06 03:26:51;;;;;;;6.20;2.88;;;;;;;7.77;86.26;100280.41;5014387;28;20145;-91
2022/04/06 03:29:16;;;;;;;8.20;2.83;;;;;;;7.73;85.93;100280.44;5013666;28;20046;-90
2022/04/06 03:31:41;;;;;;;9.13;2.80;;;;;;;7.72;85.52;100264.97;5014110;28;20045;-91
2022/04/06 03:34:07;;;;;;;7.03;2.70;;;;;;;7.73;85.96;100264.94;5014440;28;20466;-90
2022/04/06 03:36:32;;;;;;;6.27;2.60;;;;;;;7.73;85.32;100266.69;5013295;28;20087;-91
2022/04/06 03:38:57;;;;;;;10.07;2.90;;;;;;;7.84;85.46;100254.47;5014142;28;20028;-89
2022/04/06 03:41:22;;;;;;;5.65;2.75;;;;;;;7.72;85.45;100252.91;5013931;28;20080;-91
2022/04/06 03:43:48;;;;;;;5.13;2.58;;;;;;;7.72;85.65;100250.31;5013730;28;20501;-91
2022/04/06 03:46:14;;;;;;;3.55;2.30;;;;;;;7.71;85.63;100248.59;5014114;28;20026;-90
2022/04/06 03:48:39;;;;;;;5.22;2.63;;;;;;;7.70;85.23;100243.47;5013940;28;20025;-91
2022/04/06 03:51:05;;;;;;;7.57;2.70;;;;;;;7.71;85.23;100238.28;5014181;28;20033;-91
2022/04/06 03:53:30;;;;;;;5.90;2.60;;;;;;;7.69;85.48;100249.50;5013953;28;20037;-90
2022/04/06 03:55:55;;;;;;;5.93;2.40;;;;;;;7.67;85.20;100246.09;5014152;28;20026;-91
2022/04/06 03:58:21;;;;;;;4.95;2.30;;;;;;;7.66;85.27;100244.38;5013935;28;20157;-91
2022/04/06 04:00:46;;;;;;;4.60;2.33;;;;;;;7.65;84.99;100248.69;5013752;28;20030;-90
2022/04/06 04:03:11;;;;;;;5.57;1.88;;;;;;;7.64;85.03;100248.72;5014063;28;20034;-91
2022/04/06 04:05:37;;;;;;;3.72;2.08;;;;;;;7.65;85.22;100245.28;5013132;28;20081;-92
2022/04/06 04:08:03;;;;;;;3.10;2.00;;;;;;;7.62;84.74;100246.16;5013626;28;20049;-90
2022/04/06 04:10:28;;;;;;;7.10;2.37;;;;;;;7.66;84.74;100246.97;5013482;28;20026;-91
2022/04/06 04:12:53;;;;;;;8.85;2.50;;;;;;;7.65;84.70;100248.69;5013739;28;20520;-91
2022/04/06 04:15:18;;;;;;;6.60;2.43;;;;;;;7.63;83.89;100239.28;5013839;28;20021;-91
2022/04/06 04:17:44;;;;;;;5.67;2.20;;;;;;;7.65;83.88;100247.84;5014463;28;20034;-92
2022/04/06 04:20:10;;;;;;;6.17;2.67;;;;;;;7.65;84.09;100246.13;5017495;28;20026;-89
2022/04/06 04:22:35;;;;;;;6.40;2.50;;;;;;;7.66;83.90;100239.22;5017522;28;20400;-90
2022/04/06 04:25:00;;;;;;;5.82;2.40;;;;;;;7.64;83.98;100246.16;5017134;28;20033;-91
2022/04/06 04:27:26;;;;;;;8.17;2.40;;;;;;;7.65;84.18;100237.53;5017329;28;20034;-90
2022/04/06 04:29:51;;;;;;;6.78;2.42;;;;;;;7.65;84.35;100234.94;5017195;28;20050;-91
2022/04/06 04:32:16;;;;;;;6.15;2.22;;;;;;;7.63;84.84;100234.94;5017320;28;20030;-91
2022/04/06 04:34:43;;;;;;;8.02;2.40;;;;;;;7.60;84.30;100237.56;5017330;28;20482;-90
2022/04/06 04:37:08;;;;;;;5.55;2.38;;;;;;;7.62;84.40;100234.97;5017452;28;20033;-90
2022/04/06 04:39:34;;;;;;;3.97;2.17;;;;;;;7.62;84.69;100232.41;5017047;28;20118;-91
2022/04/06 04:41:59;;;;;;;5.37;2.20;;;;;;;7.63;84.67;100234.09;5016880;28;20033;-91
2022/04/06 04:44:24;;;;;;;7.50;2.70;;;;;;;7.62;84.80;100230.66;5017028;28;20022;-91
2022/04/06 04:46:50;;;;;;;8.32;3.10;;;;;;;7.63;84.29;100224.63;5016854;28;20033;-88
2022/04/06 04:49:15;;;;;;;9.00;3.00;;;;;;;7.65;84.90;100222.88;5016837;28;20034;-90
2022/04/06 04:51:40;;;;;;;5.77;2.83;;;;;;;7.64;85.35;100215.16;5017265;28;20041;-91
2022/04/06 04:54:06;;;;;;;9.48;3.40;;;;;;;7.67;85.30;100212.50;5016695;28;20470;-89
2022/04/06 04:56:32;;;;;;;14.93;3.70;;;;;;;7.62;85.67;100217.75;5031659;28;20080;-88
2022/04/06 04:58:58;;;;;;;9.32;3.35;;;;;;;7.65;85.43;100217.72;5034396;28;20026;-90
2022/04/06 05:01:24;;;;;;;7.73;3.43;;;;;;;7.64;85.71;100207.41;5034535;28;20022;-90
2022/04/06 05:03:49;;;;;;;11.90;3.85;;;;;;;7.66;85.52;100214.25;5025057;28;20275;-91
2022/04/06 05:06:15;;;;;;;9.10;3.43;;;;;;;7.66;85.67;100209.09;5017028;28;20105;-90
2022/04/06 05:08:40;;;;;;;8.18;3.45;;;;;;;7.67;85.79;100207.34;5016955;28;20466;-90
2022/04/06 05:11:05;;;;;;;12.87;4.30;;;;;;;7.68;86.13;100209.94;5016677;28;20026;-90
2022/04/06 05:13:31;;;;;;;8.73;3.67;;;;;;;7.67;86.16;100204.75;5016398;28;20029;-87
2022/04/06 05:15:57;;;;;;;13.60;3.83;;;;;;;7.75;85.50;100209.81;5016395;28;20030;-89
2022/04/06 05:18:22;;;;;;;14.15;4.10;;;;;;;7.70;85.43;100205.59;5016569;28;20109;-91
2022/04/06 05:20:47;;;;;;;10.47;4.20;;;;;;;7.72;85.65;100209.00;5016713;28;20034;-90
2022/04/06 05:23:13;;;;;;;9.75;3.70;;;;;;;7.73;85.62;100209.84;5016404;28;20033;-88
2022/04/06 05:25:38;;;;;;;12.60;4.13;;;;;;;7.72;85.54;100203.81;5016315;28;20025;-90
2022/04/06 05:28:04;;;;;;;11.43;4.03;;;;;;;7.72;86.00;100197.81;5016407;28;20402;-92
2022/04/06 05:30:31;;;;;;;9.57;3.88;;;;;;;7.77;85.68;100190.84;5015374;28;20041;-90
2022/04/06 05:32:57;;;;;;;10.93;3.90;;;;;;;7.72;85.49;100198.66;5015964;28;20022;-88
2022/04/06 05:35:25;;;;;;;9.70;3.90;;;;;;;7.76;85.22;100193.47;5015962;28;20026;-90
2022/04/06 05:37:51;;;;;;;9.93;3.80;;;;;;;7.73;85.14;100199.53;5016166;28;20441;-90
2022/04/06 05:40:18;;;;;;;8.00;3.45;;;;;;;7.75;85.50;100197.78;5016405;28;20041;-91
2022/04/06 05:42:43;;;;;;;;;;;;;;;7.76;85.14;100201.22;5016381;28;20041;-92
2022/04/06 05:45:09;;;;;;;9.10;3.60;;;;;;;7.74;85.33;100198.66;5016335;28;19913;-91
2022/04/06 05:47:35;;;;;;;9.63;3.80;;;;;;;7.76;85.29;100198.63;5015613;28;20429;-90
2022/04/06 05:50:02;;;;;;;9.93;3.85;;;;;;;7.75;85.50;100182.28;5015893;28;20080;-91
2022/04/06 05:52:27;;;;;;;10.70;4.00;;;;;;;7.76;85.00;100183.13;5015930;28;20033;-90
2022/04/06 05:54:53;;;;;;;9.17;3.33;;;;;;;7.78;84.88;100189.97;5015668;28;20025;-90
2022/04/06 05:57:19;;;;;;;8.03;3.10;;;;;;;7.80;84.85;100195.97;5016195;28;20022;-90
2022/04/06 05:59:45;;;;;;;8.00;3.10;;;;;;;7.79;84.59;100189.09;5015376;28;20042;-92
2022/04/06 06:02:11;;;;;;;9.77;3.03;;;;;;;7.79;83.84;100191.69;5015973;28;20041;-91
2022/04/06 06:04:38;;;;;;;7.55;2.92;;;;;;;7.83;84.17;100197.66;5013483;28;20022;-85
2022/04/06 06:07:05;;;;;;;7.50;3.00;;;;;;;7.83;83.69;100201.09;5014982;28;20036;-89
2022/04/06 06:09:30;;;;;;;7.20;2.75;;;;;;;7.84;83.50;100191.59;5015113;28;20068;-94
2022/04/06 06:11:56;;;;;;;7.37;3.00;;;;;;;7.84;83.60;100204.53;5015263;28;20026;-90
2022/04/06 06:14:21;;;;;;;6.20;2.43;;;;;;;7.86;83.72;100200.19;5016030;28;20040;-91
2022/04/06 06:16:50;;;;;;;8.77;3.10;;;;;;;7.87;83.15;100200.19;5015775;28;20029;-88
2022/04/06 06:19:16;;;;;;;9.95;2.80;;;;;;;7.88;82.19;100201.88;5020012;28;20017;-85
2022/04/06 06:21:41;;;;;;;5.55;2.50;;;;;;;7.91;82.36;100198.41;5029819;28;20133;-86
2022/04/06 06:24:07;;;;;;;8.17;2.60;;;;;;;7.95;81.20;100205.22;5013721;28;20105;-87
2022/04/06 06:26:37;;;;;;;5.63;2.23;;;;;;;7.95;81.67;100202.63;5013781;28;20026;-86
2022/04/06 06:29:03;;;;;;;5.95;2.40;;;;;;;7.99;79.06;100211.22;5013578;28;20077;-86
2022/04/06 06:31:29;;;;;;;7.55;2.75;;;;;;;8.02;79.74;100199.09;5013523;28;20034;-85
2022/04/06 06:34:01;;;;;;;5.30;2.63;;;;;;;8.05;77.42;100193.03;5013809;28;20022;-86
2022/04/06 06:36:27;;;;;;;6.00;2.60;;;;;;;8.09;78.84;100199.00;5013744;28;20037;-85
2022/04/06 06:38:53;;;;;;;4.23;2.40;;;;;;;8.14;77.68;100197.22;5013630;28;20029;-85
2022/04/06 06:41:20;;;;;;;3.90;2.40;;;;;;;8.13;77.99;100198.09;5014074;28;20040;-84
2022/04/06 06:43:48;;;;;;;3.03;2.13;;;;;;;8.14;77.23;100189.47;5014011;28;20022;-86
2022/04/06 06:46:14;;;;;;;4.78;2.20;;;;;;;8.12;76.52;100188.63;5013719;28;20026;-86
2022/04/06 06:48:39;;;;;;;5.57;2.10;;;;;;;8.12;76.33;100178.28;5013606;28;20037;-85
2022/04/06 06:51:04;;;;;;;3.20;2.08;;;;;;;8.14;77.43;100187.72;5013203;28;20030;-85
2022/04/06 06:53:31;;;;;;;3.13;1.90;;;;;;;8.16;76.68;100188.56;5012908;28;20041;-84
2022/04/06 06:55:56;;;;;;;7.30;2.35;;;;;;;8.22;75.93;100184.16;5013834;28;20104;-83
2022/04/06 06:58:22;;;;;;;4.47;1.83;;;;;;;8.23;75.38;100183.25;5014346;28;20057;-85
2022/04/06 07:00:47;;;;;;;3.10;1.80;;;;;;;8.23;74.68;100184.13;5012898;28;20077;-90
2022/04/06 07:03:15;;;;;;;7.13;1.90;;;;;;;8.24;76.67;100175.50;5014287;28;20518;-89
2022/04/06 07:05:40;;;;;;;4.57;1.90;;;;;;;8.26;76.63;100176.34;5014617;28;20106;-90
2022/04/06 07:08:06;;;;;;;4.20;1.90;;;;;;;8.33;75.79;100174.50;5014482;28;20096;-89
2022/04/06 07:10:31;;;;;;;4.63;2.00;;;;;;;8.33;74.86;100180.53;5013760;28;20026;-86
2022/04/06 07:12:57;;;;;;;5.90;1.83;;;;;;;8.35;75.15;100177.91;5013412;28;20024;-86
2022/04/06 07:15:24;;;;;;;3.72;1.65;;;;;;;8.34;75.93;100182.22;5012879;28;20467;-86
2022/04/06 07:17:56;;;;;;;3.55;1.50;;;;;;;8.35;75.99;100185.66;5013517;28;20026;-85
2022/04/06 07:20:23;;;;;;;2.20;1.25;;;;;;;8.35;76.55;100180.47;5013431;28;20116;-88
2022/04/06 07:22:48;;;;;;;4.07;1.73;;;;;;;8.36;75.61;100171.84;5013975;28;20026;-88
2022/04/06 07:25:13;;;;;;;3.00;1.48;;;;;;;8.34;76.41;100160.66;5013913;28;20056;-89
2022/04/06 07:27:39;;;;;;;4.93;1.70;;;;;;;8.39;76.23;100163.22;5014034;28;20014;-88
2022/04/06 07:30:07;;;;;;;5.80;1.70;;;;;;;8.41;76.57;100161.44;5014648;28;20038;-88
2022/04/06 07:32:33;;;;;;;5.18;2.13;;;;;;;8.47;77.90;100162.22;5019091;28;20029;-85
2022/04/06 07:34:59;;;;;;;12.03;2.50;;;;;;;8.43;77.92;100159.66;5019917;28;20077;-87
2022/04/06 07:37:24;;;;;;;6.60;2.50;;;;;;;8.44;77.88;100154.50;5021006;28;20121;-88
2022/04/06 07:39:50;;;;;;;6.20;2.53;;;;;;;8.52;78.25;100153.53;5019600;28;20064;-88
2022/04/06 07:42:18;;;;;;;5.60;2.58;;;;;;;8.44;78.68;100154.50;5016668;28;20034;-91
2022/04/06 07:44:43;;;;;;;8.02;2.72;;;;;;;8.44;79.25;100143.28;5014097;28;20061;-90
2022/04/06 07:47:08;;;;;;;4.73;2.50;;;;;;;8.47;79.56;100145.81;5014520;28;20022;-90
2022/04/06 07:49:33;;;;;;;7.53;2.85;;;;;;;8.46;79.74;100139.78;5013836;28;20140;-87
2022/04/06 07:51:59;;;;;;;7.90;2.75;;;;;;;8.50;79.97;100141.47;5013672;28;20026;-88
2022/04/06 07:54:25;;;;;;;6.40;2.70;;;;;;;8.57;80.11;100134.47;5010583;28;20027;-91
2022/04/06 07:56:50;;;;;;;7.65;2.95;;;;;;;8.66;80.19;100130.84;5012427;28;20026;-88
2022/04/06 07:59:15;;;;;;;5.37;2.60;;;;;;;8.81;80.49;100124.53;4999286;28;20478;-90
2022/04/06 08:01:43;;;;;;;9.10;3.10;;;;;;;8.99;80.13;100123.31;5014165;28;20033;-91
2022/04/06 08:04:08;;;;;;;6.35;2.92;;;;;;;9.12;79.31;100126.50;5016803;28;20542;-91
2022/04/06 08:06:34;;;;;;;8.23;3.10;;;;;;;9.19;78.65;100129.81;5017441;28;20109;-88
2022/04/06 08:08:59;;;;;;;7.97;3.10;;;;;;;9.21;78.43;100130.63;5018016;28;20030;-90
2022/04/06 08:11:24;;;;;;;5.23;2.77;;;;;;;9.22;78.94;100135.78;5017733;28;20458;-88
2022/04/06 08:13:50;;;;;;;5.33;2.77;;;;;;;9.20;78.30;100132.34;5017544;28;20084;-89
2022/04/06 08:16:15;;;;;;;9.17;3.13;;;;;;;9.16;78.14;100132.44;5016919;28;20041;-89
2022/04/06 08:18:43;;;;;;;7.47;2.73;;;;;;;9.09;78.16;100137.78;5017130;28;20026;-90
2022/04/06 08:21:09;;;;;;;8.13;3.08;;;;;;;9.02;78.54;100132.75;5017763;28;20022;-87
2022/04/06 08:23:35;;;;;;;6.60;2.80;;;;;;;8.95;78.80;100126.84;5016228;28;20084;-88
2022/04/06 08:26:01;;;;;;;6.78;2.75;;;;;;;8.92;78.65;100137.25;5017492;28;20516;-87
2022/04/06 08:28:26;;;;;;;8.40;3.00;;;;;;;8.87;78.53;100137.34;5016610;28;20037;-86
2022/04/06 08:30:51;;;;;;;5.90;2.60;;;;;;;8.83;78.52;100138.28;5016687;28;20030;-87
2022/04/06 08:33:17;;;;;;;5.77;2.97;;;;;;;8.80;79.31;100139.19;5016031;28;20080;-85
2022/04/06 08:35:45;;;;;;;5.67;2.80;;;;;;;8.81;79.06;100137.47;5016434;28;20018;-84
2022/04/06 08:38:12;;;;;;;6.47;2.70;;;;;;;8.78;78.33;100140.09;5016943;28;20034;-85
2022/04/06 08:40:39;;;;;;;7.13;2.72;;;;;;;8.75;78.61;100134.97;5017001;28;20029;-88
2022/04/06 08:43:11;;;;;;;6.50;2.90;;;;;;;8.74;79.23;100128.97;5017155;28;20032;-92
2022/04/06 08:45:38;;;;;;;6.15;2.50;;;;;;;8.75;79.35;100132.38;5016818;28;20040;-90
2022/04/06 08:48:05;;;;;;;;;;;;;;;8.77;79.40;100121.16;5017503;28;20034;-90
2022/04/06 08:50:33;;;;;;;8.00;2.70;;;;;;;8.81;79.47;100121.94;5016692;28;19920;-92
2022/04/06 08:53:01;;;;;;;5.90;2.60;;;;;;;8.86;79.77;100124.44;5016871;28;20057;-91
2022/04/06 08:55:28;;;;;;;4.85;2.70;;;;;;;8.96;79.48;100111.25;5017118;28;20053;-92
2022/04/06 08:57:55;;;;;;;5.43;2.20;;;;;;;9.02;79.44;100114.63;5017067;28;20474;-91
2022/04/06 09:00:20;;;;;;;6.65;2.63;;;;;;;9.10;79.15;100113.59;5017153;28;20033;-90
2022/04/06 09:02:46;;;;;;;4.63;2.50;;;;;;;9.12;78.88;100118.72;5017542;28;20029;-91
2022/04/06 09:05:12;;;;;;;7.80;2.70;;;;;;;9.13;79.08;100120.44;5016949;28;20033;-88
2022/04/06 09:07:39;;;;;;;7.27;2.50;;;;;;;9.14;79.27;100131.63;5016509;28;20463;-91
2022/04/06 09:10:05;;;;;;;7.35;2.55;;;;;;;9.11;79.04;100123.06;5016808;28;20030;-87
2022/04/06 09:12:30;;;;;;;8.03;3.00;;;;;;;9.10;78.99;100126.53;5016191;28;20493;-88
2022/04/06 09:15:11;;;;;;;6.73;3.17;;;;;;;9.12;79.71;100122.16;5015894;28;20030;-89
2022/04/06 09:17:45;;;;;;;5.68;2.75;;;;;;;9.17;79.69;100116.91;5016288;28;20044;-88
2022/04/06 09:20:10;;;;;;;6.45;2.83;;;;;;;9.23;79.83;100115.94;5016340;28;20079;-89
2022/04/06 09:22:37;;;;;;;6.20;2.70;;;;;;;9.25;80.44;100119.31;5016454;28;20113;-91
2022/04/06 09:25:05;;;;;;;7.78;3.33;;;;;;;9.23;80.39;100126.28;5016592;28;20037;-90
2022/04/06 09:27:31;;;;;;;8.18;3.20;;;;;;;9.20;80.98;100116.81;5016053;28;20454;-91
2022/04/06 09:29:57;;;;;;;7.22;3.05;;;;;;;9.22;80.71;100116.81;5015789;28;20053;-87
2022/04/06 09:32:23;;;;;;;7.63;3.05;;;;;;;9.24;80.76;100120.19;5015846;28;20437;-89
2022/04/06 09:34:49;;;;;;;5.90;2.60;;;;;;;9.21;80.28;100118.53;5016128;28;20025;-90
2022/04/06 09:37:28;;;;;;;10.47;3.07;;;;;;;9.21;79.69;100121.13;5015738;28;20040;-90
2022/04/06 09:39:58;;;;;;;9.25;3.63;;;;;;;9.20;80.05;100115.97;5015698;28;20046;-89
2022/04/06 09:42:27;;;;;;;5.47;2.78;;;;;;;9.22;80.42;100116.81;5015685;28;20032;-89
2022/04/06 09:47:51;;;;;;;5.50;3.03;;;;;;;9.18;79.24;100115.16;5015611;28;20041;-89
2022/04/06 09:50:20;;;;;;;5.45;2.72;;;;;;;9.16;79.21;100122.97;5015372;28;20462;-90
2022/04/06 09:52:47;;;;;;;5.85;2.80;;;;;;;9.18;79.48;100121.16;5015524;28;20084;-90
2022/04/06 09:55:13;;;;;;;;;;;;;;;9.23;79.82;100111.59;5015890;28;20050;-87
2022/04/06 09:57:47;;;;;;;5.65;2.90;;;;;;;9.25;80.83;100108.94;5015134;28;19967;-83
2022/04/06 10:00:18;;;;;;;6.78;3.05;;;;;;;9.26;80.78;100102.88;5015089;28;20068;-88
2022/04/06 10:02:50;;;;;;;6.10;3.00;;;;;;;9.32;80.27;100095.00;5014638;28;20080;-89
2022/04/06 10:05:18;;;;;;;4.47;2.80;;;;;;;9.34;79.97;100098.41;5006297;28;20053;-90
2022/04/06 10:07:44;;;;;;;4.03;2.85;;;;;;;9.36;80.26;100098.38;5024169;28;20037;-89
2022/04/06 10:10:12;;;;;;;5.83;2.70;;;;;;;9.37;80.46;100100.91;5028647;28;20022;-90
2022/04/06 10:12:38;;;;;;;6.90;2.90;;;;;;;9.38;80.45;100102.63;5028361;28;20045;-89
2022/04/06 10:15:05;;;;;;;6.87;2.80;;;;;;;9.37;80.25;100097.50;5014186;28;20466;-90
2022/04/06 10:17:31;;;;;;;;;;;;;;;9.38;80.87;100099.19;5015209;28;20803;-90
2022/04/06 10:20:11;;;;;;;6.80;2.90;;;;;;;9.34;81.29;100093.25;5014784;28;19917;-87
2022/04/06 10:22:48;;;;;;;5.70;2.75;;;;;;;9.33;80.80;100096.72;5015165;28;20034;-86
2022/04/06 10:25:39;;;;;;;4.05;2.58;;;;;;;9.29;81.11;100092.47;5014831;28;20061;-86
2022/04/06 10:28:12;;;;;;;5.05;2.60;;;;;;;9.30;81.32;100094.19;5014262;28;20102;-91
2022/04/06 10:30:38;;;;;;;5.57;2.80;;;;;;;9.26;81.37;100095.13;5014405;28;20097;-86
2022/04/06 10:33:18;;;;;;;7.90;2.93;;;;;;;9.19;80.94;100083.22;5014541;28;20064;-89
2022/04/06 10:35:43;;;;;;;6.32;2.78;;;;;;;9.19;81.25;100080.63;5014824;28;20276;-89
2022/04/06 10:38:08;;;;;;;6.37;2.83;;;;;;;9.20;81.08;100090.09;5013947;28;20033;-86
2022/04/06 10:40:42;;;;;;;4.03;2.70;;;;;;;9.22;80.96;100083.16;5014376;28;20034;-85
2022/04/06 10:43:33;;;;;;;7.05;2.65;;;;;;;9.29;81.35;100084.72;5014095;28;20029;-88
2022/04/06 10:45:59;;;;;;;7.82;2.70;;;;;;;9.30;81.40;100085.53;5013738;28;20397;-87
2022/04/06 10:48:24;;;;;;;6.03;2.70;;;;;;;9.32;81.90;100076.88;5014118;28;20040;-88
2022/04/06 13:15:26;;;;;;;10.13;3.95;;;;;;;10.04;76.36;99890.22;5015426;28;20103;-87
2022/04/06 13:17:51;;;;;;;7.93;4.03;;;;;;;10.09;76.77;99884.06;5011922;28;20026;-89
2022/04/06 13:20:22;;;;;;;6.23;3.70;;;;;;;10.11;76.37;99901.28;5011729;28;20038;-87
2022/04/06 13:22:49;;;;;;;5.57;3.40;;;;;;;10.12;76.93;99891.75;5015127;28;20033;-88
2022/04/06 13:25:15;;;;;;;;;;;;;;;10.13;77.30;99885.69;5015242;28;20048;-86
2022/04/06 13:27:44;;;;;;;7.35;4.22;;;;;;;10.12;76.00;99876.22;5014244;28;19914;-86
2022/04/06 13:30:11;;;;;;;6.38;3.60;;;;;;;10.16;76.31;99875.22;5015438;28;20036;-86
2022/04/06 13:32:37;;;;;;;5.93;3.40;;;;;;;10.17;75.67;99867.41;5014878;28;20072;-86
2022/04/06 13:35:02;;;;;;;4.73;3.30;;;;;;;10.20;76.17;99866.47;5006589;28;20057;-86
2022/04/06 13:37:28;;;;;;;6.37;3.53;;;;;;;10.22;75.82;99869.84;5008815;28;20033;-87
2022/04/06 13:39:56;;;;;;;6.23;3.30;;;;;;;10.23;75.85;99874.16;4995203;28;20023;-86
2022/04/06 13:42:29;;;;;;;6.00;3.47;;;;;;;10.23;75.41;99865.50;4995420;28;20034;-87
2022/04/06 13:44:54;;;;;;;5.75;3.45;;;;;;;10.22;75.31;99856.03;5004276;28;20034;-88
2022/04/06 13:47:19;;;;;;;7.70;3.40;;;;;;;10.25;75.17;99866.31;4996522;28;20382;-85
2022/04/06 13:49:44;;;;;;;6.77;3.57;;;;;;;10.23;75.63;99863.78;4994105;28;20089;-86
2022/04/06 13:52:11;;;;;;;7.33;3.77;;;;;;;10.21;75.64;99865.56;4996726;28;20375;-86
2022/04/06 13:54:40;;;;;;;;;;;;;;;10.19;74.39;99855.22;5014420;28;20030;-87
2022/04/06 13:57:15;;;;;;;;;;;;;;;;;;;;;
2022/04/06 13:59:41;;;;;;;4.93;3.20;;;;;;;10.11;75.98;99853.75;5014614;28;20048;-86
2022/04/06 14:02:06;;;;;;;4.60;3.47;;;;;;;10.17;75.58;99856.16;5014091;28;20022;-83